createdAt,value
2023-01-03T00:00:47.777Z,9.51
2023-01-03T00:01:47.782Z,9.55
2023-01-03T00:02:47.789Z,9.66
2023-01-03T00:03:47.811Z,9.65
2023-01-03T00:04:49.922Z,9.51
2023-01-03T00:05:47.698Z,9.41
2023-01-03T00:06:47.711Z,9.36
2023-01-03T00:07:47.718Z,9.27
2023-01-03T00:08:47.677Z,9.29
2023-01-03T00:09:47.685Z,9.19
2023-01-03T00:10:47.678Z,9.19
2023-01-03T00:11:47.662Z,9.27
2023-01-03T00:12:47.658Z,9.24
2023-01-03T00:13:47.659Z,9.15
2023-01-03T00:14:47.715Z,8.95
2023-01-03T00:15:47.657Z,8.83
2023-01-03T00:16:47.661Z,8.80
2023-01-03T00:17:47.629Z,8.78
2023-01-03T00:18:47.622Z,8.67
2023-01-03T00:19:47.602Z,8.70
2023-01-03T00:20:47.595Z,8.62
2023-01-03T00:21:47.601Z,8.57
2023-01-03T00:22:47.583Z,8.55
2023-01-03T00:23:47.579Z,8.62
2023-01-03T00:24:47.598Z,8.70
2023-01-03T00:25:47.561Z,8.71
2023-01-03T00:26:47.569Z,8.62
2023-01-03T00:27:47.548Z,8.71
2023-01-03T00:28:47.545Z,8.67
2023-01-03T00:29:47.538Z,8.67
2023-01-03T00:30:47.546Z,8.77
2023-01-03T00:31:47.546Z,8.85
2023-01-03T00:32:47.493Z,8.86
2023-01-03T00:33:47.504Z,8.98
2023-01-03T00:34:47.504Z,8.95
2023-01-03T00:35:47.472Z,9.03
2023-01-03T00:36:47.501Z,9.01
2023-01-03T00:37:47.497Z,9.12
2023-01-03T00:38:47.470Z,9.16
2023-01-03T00:39:47.447Z,9.24
2023-01-03T00:40:47.473Z,9.16
2023-01-03T00:41:47.431Z,9.09
2023-01-03T00:42:47.450Z,9.19
2023-01-03T00:43:47.430Z,9.29
2023-01-03T00:44:47.420Z,9.29
2023-01-03T00:45:47.427Z,9.22
2023-01-03T00:46:47.403Z,9.26
2023-01-03T00:47:47.397Z,9.26
2023-01-03T00:48:47.383Z,9.30
2023-01-03T00:49:47.366Z,9.33
2023-01-03T00:50:47.370Z,9.36
2023-01-03T00:51:47.361Z,9.37
2023-01-03T00:52:47.357Z,9.41
2023-01-03T00:53:47.370Z,9.33
2023-01-03T00:54:47.335Z,9.41
2023-01-03T00:55:47.348Z,9.34
2023-01-03T00:56:47.321Z,9.32
2023-01-03T00:57:47.300Z,9.26
2023-01-03T00:58:47.296Z,9.27
2023-01-03T00:59:47.305Z,9.27
2023-01-03T01:00:47.281Z,9.22
2023-01-03T01:01:47.980Z,9.24
2023-01-03T01:02:47.442Z,9.15
2023-01-03T01:03:47.350Z,9.09
2023-01-03T01:04:47.263Z,9.11
2023-01-03T01:05:47.252Z,9.19
2023-01-03T01:06:47.253Z,9.14
2023-01-03T01:07:47.224Z,9.15
2023-01-03T01:08:47.258Z,9.09
2023-01-03T01:09:47.219Z,9.11
2023-01-03T01:10:47.204Z,9.06
2023-01-03T01:11:47.233Z,9.16
2023-01-03T01:12:47.196Z,9.09
2023-01-03T01:13:47.222Z,9.16
2023-01-03T01:14:47.216Z,9.15
2023-01-03T01:15:47.243Z,9.14
2023-01-03T01:16:47.160Z,8.98
2023-01-03T01:17:47.182Z,9.08
2023-01-03T01:18:47.157Z,9.09
2023-01-03T01:19:47.147Z,9.04
2023-01-03T01:20:47.154Z,9.11
2023-01-03T01:21:47.137Z,9.15
2023-01-03T01:22:47.136Z,9.11
2023-01-03T01:23:47.108Z,9.01
2023-01-03T01:24:47.106Z,8.98
2023-01-03T01:25:47.092Z,8.98
2023-01-03T01:26:47.102Z,9.12
2023-01-03T01:27:47.124Z,9.11
2023-01-03T01:28:47.095Z,9.27
2023-01-03T01:29:47.062Z,9.24
2023-01-03T01:30:47.120Z,9.26
2023-01-03T01:31:47.057Z,9.23
2023-01-03T01:32:47.038Z,9.11
2023-01-03T01:33:47.039Z,9.16
2023-01-03T01:34:47.047Z,9.27
2023-01-03T01:35:47.023Z,9.32
2023-01-03T01:36:47.015Z,9.34
2023-01-03T01:37:47.021Z,9.29
2023-01-03T01:38:47.019Z,9.33
2023-01-03T01:39:46.980Z,9.27
2023-01-03T01:40:47.011Z,9.36
2023-01-03T01:41:46.993Z,9.37
2023-01-03T01:42:46.978Z,9.36
2023-01-03T01:43:46.956Z,9.37
2023-01-03T01:44:46.963Z,9.42
2023-01-03T01:45:46.947Z,9.34
2023-01-03T01:46:47.010Z,9.47
2023-01-03T01:47:46.933Z,9.51
2023-01-03T01:48:46.906Z,9.40
2023-01-03T01:49:46.926Z,9.29
2023-01-03T01:50:46.900Z,9.33
2023-01-03T01:51:46.917Z,9.26
2023-01-03T01:52:46.881Z,9.32
2023-01-03T01:53:46.906Z,9.41
2023-01-03T01:54:46.865Z,9.50
2023-01-03T01:55:46.859Z,9.50
2023-01-03T01:56:46.897Z,9.45
2023-01-03T01:57:46.846Z,9.48
2023-01-03T01:58:46.851Z,9.48
2023-01-03T01:59:46.841Z,9.41
2023-01-03T02:00:46.852Z,9.45
2023-01-03T02:01:46.929Z,9.27
2023-01-03T02:02:46.944Z,9.27
2023-01-03T02:03:46.872Z,9.30
2023-01-03T02:05:09.874Z,9.27
2023-01-03T02:05:46.804Z,9.26
2023-01-03T02:06:46.867Z,9.27
2023-01-03T02:07:46.778Z,9.27
2023-01-03T02:08:46.768Z,9.36
2023-01-03T02:09:46.780Z,9.34
2023-01-03T02:10:46.753Z,9.40
2023-01-03T02:11:46.761Z,9.29
2023-01-03T02:12:46.747Z,9.33
2023-01-03T02:13:46.730Z,9.34
2023-01-03T02:14:46.749Z,9.32
2023-01-03T02:15:46.796Z,9.29
2023-01-03T02:16:46.738Z,9.30
2023-01-03T02:17:46.705Z,9.23
2023-01-03T02:18:46.701Z,9.27
2023-01-03T02:19:46.691Z,9.26
2023-01-03T02:20:46.691Z,9.41
2023-01-03T02:21:46.681Z,9.48
2023-01-03T02:22:46.681Z,9.50
2023-01-03T02:23:46.662Z,9.59
2023-01-03T02:24:46.663Z,9.59
2023-01-03T02:25:46.657Z,9.55
2023-01-03T02:26:46.634Z,9.62
2023-01-03T02:27:46.619Z,9.54
2023-01-03T02:28:46.617Z,9.48
2023-01-03T02:29:46.627Z,9.47
2023-01-03T02:30:46.668Z,9.50
2023-01-03T02:31:46.718Z,9.54
2023-01-03T02:32:46.602Z,9.47
2023-01-03T02:33:46.585Z,9.65
2023-01-03T02:34:46.597Z,9.60
2023-01-03T02:35:46.585Z,9.62
2023-01-03T02:36:46.565Z,9.60
2023-01-03T02:37:46.572Z,9.65
2023-01-03T02:38:46.570Z,9.66
2023-01-03T02:39:46.554Z,9.70
2023-01-03T02:40:46.543Z,9.70
2023-01-03T02:41:46.550Z,9.57
2023-01-03T02:42:46.546Z,9.57
2023-01-03T02:43:46.541Z,9.55
2023-01-03T02:44:46.499Z,9.54
2023-01-03T02:45:46.495Z,9.44
2023-01-03T02:46:46.548Z,9.48
2023-01-03T02:47:46.496Z,9.50
2023-01-03T02:48:46.485Z,9.57
2023-01-03T02:49:46.467Z,9.41
2023-01-03T02:50:46.474Z,9.36
2023-01-03T02:51:46.476Z,9.37
2023-01-03T02:52:46.458Z,9.50
2023-01-03T02:53:46.443Z,9.54
2023-01-03T02:54:46.422Z,9.40
2023-01-03T02:55:46.435Z,9.47
2023-01-03T02:56:46.416Z,9.50
2023-01-03T02:57:46.409Z,9.60
2023-01-03T02:58:46.396Z,9.51
2023-01-03T02:59:46.399Z,9.59
2023-01-03T03:00:46.394Z,9.52
2023-01-03T03:01:46.516Z,9.54
2023-01-03T03:02:46.564Z,9.54
2023-01-03T03:03:46.502Z,9.54
2023-01-03T03:04:46.372Z,9.50
2023-01-03T03:05:46.356Z,9.45
2023-01-03T03:06:46.352Z,9.37
2023-01-03T03:08:07.349Z,9.32
2023-01-03T03:08:46.337Z,9.37
2023-01-03T03:09:46.338Z,9.37
2023-01-03T03:10:46.331Z,9.30
2023-01-03T03:11:46.320Z,9.29
2023-01-03T03:12:46.320Z,9.27
2023-01-03T03:13:46.325Z,9.30
2023-01-03T03:14:46.295Z,9.32
2023-01-03T03:15:46.319Z,9.33
2023-01-03T03:16:46.276Z,9.37
2023-01-03T03:17:46.271Z,9.40
2023-01-03T03:18:46.245Z,9.37
2023-01-03T03:19:46.268Z,9.29
2023-01-03T03:20:46.245Z,9.30
2023-01-03T03:21:46.249Z,9.27
2023-01-03T03:22:46.231Z,9.33
2023-01-03T03:23:46.237Z,9.41
2023-01-03T03:24:46.207Z,9.34
2023-01-03T03:25:46.208Z,9.32
2023-01-03T03:26:46.283Z,9.26
2023-01-03T03:27:46.181Z,9.29
2023-01-03T03:28:46.199Z,9.29
2023-01-03T03:29:46.198Z,9.37
2023-01-03T03:30:46.168Z,9.29
2023-01-03T03:31:46.221Z,9.26
2023-01-03T03:32:46.191Z,9.29
2023-01-03T03:33:46.145Z,9.27
2023-01-03T03:34:46.133Z,9.29
2023-01-03T03:35:46.150Z,9.24
2023-01-03T03:36:46.149Z,9.26
2023-01-03T03:37:46.117Z,9.27
2023-01-03T03:38:46.126Z,9.36
2023-01-03T03:39:46.133Z,9.32
2023-01-03T03:40:46.112Z,9.34
2023-01-03T03:41:46.111Z,9.41
2023-01-03T03:42:46.088Z,9.37
2023-01-03T03:43:46.063Z,9.33
2023-01-03T03:44:46.057Z,9.37
2023-01-03T03:45:46.051Z,9.42
2023-01-03T03:46:52.351Z,9.52
2023-01-03T03:47:46.041Z,9.41
2023-01-03T03:48:46.045Z,9.37
2023-01-03T03:49:46.031Z,9.40
2023-01-03T03:50:46.042Z,9.34
2023-01-03T03:51:46.016Z,9.45
2023-01-03T03:52:46.035Z,9.34
2023-01-03T03:53:46.002Z,9.37
2023-01-03T03:54:46.003Z,9.36
2023-01-03T03:55:45.990Z,9.42
2023-01-03T03:56:46.000Z,9.30
2023-01-03T03:57:45.967Z,9.33
2023-01-03T03:58:46.044Z,9.32
2023-01-03T03:59:45.958Z,9.36
2023-01-03T04:00:45.965Z,9.29
2023-01-03T04:01:46.050Z,9.37
2023-01-03T04:02:46.036Z,9.41
2023-01-03T04:03:45.979Z,9.29
2023-01-03T04:04:45.914Z,9.29
2023-01-03T04:05:45.904Z,9.27
2023-01-03T04:06:45.895Z,9.27
2023-01-03T04:07:45.916Z,9.36
2023-01-03T04:08:45.900Z,9.40
2023-01-03T04:09:45.899Z,9.37
2023-01-03T04:10:45.883Z,9.37
2023-01-03T04:11:45.868Z,9.42
2023-01-03T04:12:45.870Z,9.40
2023-01-03T04:13:45.860Z,9.37
2023-01-03T04:14:45.840Z,9.41
2023-01-03T04:15:45.852Z,9.45
2023-01-03T04:16:45.883Z,9.32
2023-01-03T04:17:45.828Z,9.27
2023-01-03T04:18:45.817Z,9.30
2023-01-03T04:19:45.805Z,9.34
2023-01-03T04:20:45.823Z,9.34
2023-01-03T04:21:45.813Z,9.37
2023-01-03T04:22:45.795Z,9.37
2023-01-03T04:23:45.783Z,9.37
2023-01-03T04:24:45.790Z,9.41
2023-01-03T04:25:45.763Z,9.34
2023-01-03T04:26:45.774Z,9.24
2023-01-03T04:27:45.738Z,9.34
2023-01-03T04:28:45.766Z,9.41
2023-01-03T04:29:45.734Z,9.40
2023-01-03T04:30:45.726Z,9.36
2023-01-03T04:31:45.749Z,9.42
2023-01-03T04:32:45.748Z,9.48
2023-01-03T04:33:45.722Z,9.52
2023-01-03T04:34:45.685Z,9.59
2023-01-03T04:35:45.691Z,9.52
2023-01-03T04:36:45.699Z,9.55
2023-01-03T04:37:45.681Z,9.57
2023-01-03T04:38:45.688Z,9.51
2023-01-03T04:39:45.667Z,9.47
2023-01-03T04:40:45.669Z,9.50
2023-01-03T04:41:45.648Z,9.55
2023-01-03T04:42:45.651Z,9.48
2023-01-03T04:43:45.648Z,9.42
2023-01-03T04:44:45.669Z,9.37
2023-01-03T04:45:45.647Z,9.40
2023-01-03T04:46:52.355Z,9.42
2023-01-03T04:47:45.631Z,9.36
2023-01-03T04:48:45.608Z,9.42
2023-01-03T04:49:45.629Z,9.42
2023-01-03T04:50:45.585Z,9.41
2023-01-03T04:51:45.581Z,9.41
2023-01-03T04:52:45.569Z,9.48
2023-01-03T04:53:45.596Z,9.33
2023-01-03T04:54:45.561Z,9.32
2023-01-03T04:55:45.553Z,9.32
2023-01-03T04:56:45.554Z,9.32
2023-01-03T04:57:45.541Z,9.32
2023-01-03T04:58:45.553Z,9.34
2023-01-03T04:59:45.522Z,9.29
2023-01-03T05:00:45.551Z,9.40
2023-01-03T05:01:45.594Z,9.34
2023-01-03T05:02:45.569Z,9.37
2023-01-03T05:03:45.512Z,9.42
2023-01-03T05:04:45.523Z,9.37
2023-01-03T05:05:45.489Z,9.44
2023-01-03T05:06:45.459Z,9.44
2023-01-03T05:07:45.465Z,9.40
2023-01-03T05:08:45.466Z,9.41
2023-01-03T05:09:45.434Z,9.42
2023-01-03T05:10:45.436Z,9.48
2023-01-03T05:11:45.418Z,9.48
2023-01-03T05:12:45.432Z,9.47
2023-01-03T05:15:20.007Z,9.48
2023-01-03T05:16:20.017Z,9.50
2023-01-03T05:18:15.136Z,9.37
2023-01-03T05:19:15.119Z,9.44
2023-01-03T05:21:09.256Z,9.34
2023-01-03T05:22:09.243Z,9.40
2023-01-03T05:24:03.471Z,9.30
2023-01-03T05:25:03.459Z,9.36
2023-01-03T05:26:57.602Z,9.37
2023-01-03T05:27:57.569Z,9.36
2023-01-03T05:29:52.742Z,9.29
2023-01-03T05:30:52.724Z,9.27
2023-01-03T05:32:46.840Z,9.24
2023-01-03T05:33:46.826Z,9.32
2023-01-03T05:35:40.928Z,9.23
2023-01-03T05:36:40.922Z,9.27
2023-01-03T05:38:35.228Z,9.27
2023-01-03T05:39:35.204Z,9.22
2023-01-03T05:41:29.461Z,9.12
2023-01-03T05:42:29.439Z,9.09
2023-01-03T05:44:23.572Z,9.08
2023-01-03T05:45:23.557Z,9.11
2023-01-03T05:47:17.676Z,9.09
2023-01-03T05:48:17.661Z,9.08
2023-01-03T05:50:11.431Z,9.09
2023-01-03T05:51:11.399Z,9.03
2023-01-03T05:53:05.529Z,8.98
2023-01-03T05:54:05.505Z,8.89
2023-01-03T05:56:00.642Z,9.03
2023-01-03T05:57:00.625Z,8.95
2023-01-03T05:58:55.520Z,8.99
2023-01-03T05:59:55.492Z,8.93
2023-01-03T06:00:55.486Z,9.01
2023-01-03T06:01:55.649Z,9.01
2023-01-03T06:02:55.562Z,9.04
2023-01-03T06:03:55.485Z,8.96
2023-01-03T06:04:55.467Z,8.90
2023-01-03T06:05:55.450Z,8.92
2023-01-03T06:06:55.441Z,8.78
2023-01-03T06:07:55.441Z,8.80
2023-01-03T06:08:55.426Z,8.89
2023-01-03T06:09:55.421Z,8.83
2023-01-03T06:10:55.411Z,8.83
2023-01-03T06:11:55.402Z,8.68
2023-01-03T06:12:55.420Z,8.74
2023-01-03T06:13:55.383Z,8.72
2023-01-03T06:14:55.380Z,8.63
2023-01-03T06:15:55.370Z,8.71
2023-01-03T06:16:55.391Z,8.68
2023-01-03T06:17:55.358Z,8.75
2023-01-03T06:18:55.355Z,8.83
2023-01-03T06:19:55.339Z,8.74
2023-01-03T06:20:55.330Z,8.72
2023-01-03T06:21:55.334Z,8.75
2023-01-03T06:22:55.313Z,8.77
2023-01-03T06:23:55.306Z,8.71
2023-01-03T06:24:55.306Z,8.70
2023-01-03T06:25:55.296Z,8.65
2023-01-03T06:26:55.287Z,8.75
2023-01-03T06:27:55.284Z,8.77
2023-01-03T06:28:55.276Z,8.74
2023-01-03T06:29:55.260Z,8.74
2023-01-03T06:30:55.314Z,8.70
2023-01-03T06:31:55.242Z,8.52
2023-01-03T06:32:55.244Z,8.60
2023-01-03T06:33:55.227Z,8.57
2023-01-03T06:34:55.217Z,8.62
2023-01-03T06:35:55.227Z,8.59
2023-01-03T06:36:55.196Z,8.63
2023-01-03T06:37:55.201Z,8.59
2023-01-03T06:38:55.192Z,8.65
2023-01-03T06:39:55.187Z,8.70
2023-01-03T06:40:55.175Z,8.71
2023-01-03T06:41:55.176Z,8.77
2023-01-03T06:42:55.164Z,8.70
2023-01-03T06:43:55.173Z,8.63
2023-01-03T06:44:55.138Z,8.57
2023-01-03T06:45:55.165Z,8.56
2023-01-03T06:46:55.122Z,8.46
2023-01-03T06:47:55.124Z,8.52
2023-01-03T06:48:55.105Z,8.53
2023-01-03T06:49:55.099Z,8.55
2023-01-03T06:50:55.091Z,8.56
2023-01-03T06:51:55.092Z,8.57
2023-01-03T06:52:55.077Z,8.62
2023-01-03T06:53:55.104Z,8.52
2023-01-03T06:54:55.059Z,8.52
2023-01-03T06:55:57.393Z,8.56
2023-01-03T06:56:55.056Z,8.50
2023-01-03T06:57:55.061Z,8.52
2023-01-03T06:58:55.028Z,8.39
2023-01-03T06:59:55.016Z,8.44
2023-01-03T07:00:55.009Z,8.39
2023-01-03T07:01:55.172Z,8.44
2023-01-03T07:02:55.220Z,8.42
2023-01-03T07:03:55.033Z,8.50
2023-01-03T07:04:55.062Z,8.42
2023-01-03T07:05:54.968Z,8.37
2023-01-03T07:06:54.966Z,8.32
2023-01-03T07:07:54.971Z,8.50
2023-01-03T07:08:54.948Z,8.46
2023-01-03T07:09:54.950Z,8.37
2023-01-03T07:10:54.933Z,8.35
2023-01-03T07:11:54.919Z,8.41
2023-01-03T07:12:54.905Z,8.24
2023-01-03T07:13:54.910Z,8.31
2023-01-03T07:14:54.908Z,8.26
2023-01-03T07:15:54.997Z,8.29
2023-01-03T07:16:54.896Z,8.19
2023-01-03T07:17:54.875Z,8.24
2023-01-03T07:18:55.699Z,8.14
2023-01-03T07:19:54.863Z,7.98
2023-01-03T07:20:54.846Z,8.17
2023-01-03T07:21:54.842Z,8.20
2023-01-03T07:22:54.830Z,8.16
2023-01-03T07:23:54.863Z,8.24
2023-01-03T07:24:54.812Z,8.24
2023-01-03T07:25:54.814Z,8.24
2023-01-03T07:26:54.801Z,8.24
2023-01-03T07:27:58.717Z,8.31
2023-01-03T07:28:54.779Z,8.34
2023-01-03T07:29:54.771Z,8.34
2023-01-03T07:30:54.842Z,8.37
2023-01-03T07:31:54.809Z,8.39
2023-01-03T07:32:54.747Z,8.29
2023-01-03T07:33:54.739Z,8.28
2023-01-03T07:34:54.739Z,8.41
2023-01-03T07:35:54.727Z,8.35
2023-01-03T07:36:54.716Z,8.39
2023-01-03T07:37:54.711Z,8.39
2023-01-03T07:38:54.692Z,8.35
2023-01-03T07:39:54.691Z,8.28
2023-01-03T07:40:54.681Z,8.34
2023-01-03T07:41:54.672Z,8.31
2023-01-03T07:42:54.664Z,8.20
2023-01-03T07:43:54.664Z,8.26
2023-01-03T07:44:54.647Z,8.29
2023-01-03T07:45:54.675Z,8.23
2023-01-03T07:46:54.686Z,8.29
2023-01-03T07:47:54.630Z,8.26
2023-01-03T07:48:54.626Z,8.23
2023-01-03T07:49:54.613Z,8.10
2023-01-03T07:50:54.598Z,8.10
2023-01-03T07:51:54.596Z,8.12
2023-01-03T07:52:54.586Z,8.05
2023-01-03T07:53:54.628Z,8.21
2023-01-03T07:54:54.567Z,8.23
2023-01-03T07:55:54.560Z,8.21
2023-01-03T07:56:54.547Z,8.17
2023-01-03T07:57:54.541Z,8.13
2023-01-03T07:58:54.544Z,8.10
2023-01-03T07:59:54.532Z,8.14
2023-01-03T08:00:54.517Z,8.17
2023-01-03T08:01:54.631Z,8.14
2023-01-03T08:02:54.647Z,8.16
2023-01-03T08:03:54.500Z,8.14
2023-01-03T08:04:54.535Z,8.16
2023-01-03T08:05:54.475Z,8.24
2023-01-03T08:06:54.460Z,8.23
2023-01-03T08:07:54.457Z,8.32
2023-01-03T08:08:54.446Z,8.28
2023-01-03T08:09:54.459Z,8.41
2023-01-03T08:10:54.434Z,8.35
2023-01-03T08:11:54.428Z,8.47
2023-01-03T08:12:54.419Z,8.44
2023-01-03T08:13:54.412Z,8.52
2023-01-03T08:14:54.403Z,8.50
2023-01-03T08:15:54.413Z,8.53
2023-01-03T08:16:54.389Z,8.62
2023-01-03T08:17:54.395Z,8.74
2023-01-03T08:18:54.368Z,8.83
2023-01-03T08:19:54.362Z,8.80
2023-01-03T08:20:54.355Z,8.83
2023-01-03T08:21:54.354Z,9.01
2023-01-03T08:22:54.336Z,8.96
2023-01-03T08:23:54.327Z,8.93
2023-01-03T08:24:54.320Z,9.04
2023-01-03T08:25:54.313Z,8.99
2023-01-03T08:26:54.296Z,9.03
2023-01-03T08:27:54.290Z,9.09
2023-01-03T08:28:54.293Z,9.09
2023-01-03T08:29:54.277Z,9.19
2023-01-03T08:30:54.330Z,9.26
2023-01-03T08:31:54.326Z,9.29
2023-01-03T08:32:54.255Z,9.27
2023-01-03T08:33:54.252Z,9.37
2023-01-03T08:34:54.233Z,9.37
2023-01-03T08:35:54.237Z,9.41
2023-01-03T08:36:54.229Z,9.42
2023-01-03T08:37:54.222Z,9.37
2023-01-03T08:38:54.237Z,9.45
2023-01-03T08:39:54.202Z,9.48
2023-01-03T08:40:54.192Z,9.51
2023-01-03T08:41:54.187Z,9.54
2023-01-03T08:42:54.176Z,9.52
2023-01-03T08:43:54.164Z,9.50
2023-01-03T08:44:54.163Z,9.54
2023-01-03T08:45:54.160Z,9.57
2023-01-03T08:46:54.201Z,9.60
2023-01-03T08:47:54.148Z,9.59
2023-01-03T08:48:54.137Z,9.72
2023-01-03T08:49:54.135Z,9.78
2023-01-03T08:50:54.136Z,9.80
2023-01-03T08:51:54.127Z,9.96
2023-01-03T08:52:54.101Z,9.98
2023-01-03T08:53:54.101Z,9.99
2023-01-03T08:54:54.090Z,9.94
2023-01-03T08:55:54.092Z,10.09
2023-01-03T08:56:54.082Z,10.12
2023-01-03T08:57:54.067Z,10.14
2023-01-03T08:58:54.060Z,10.09
2023-01-03T08:59:54.054Z,10.06
2023-01-03T09:00:54.086Z,10.06
2023-01-03T09:01:54.289Z,10.21
2023-01-03T09:02:54.373Z,10.08
2023-01-03T09:03:54.179Z,10.03
2023-01-03T09:04:54.022Z,10.10
2023-01-03T09:05:54.014Z,10.10
2023-01-03T09:06:54.005Z,10.10
2023-01-03T09:07:54.001Z,10.14
2023-01-03T09:08:53.991Z,10.14
2023-01-03T09:09:53.986Z,10.16
2023-01-03T09:10:53.976Z,10.14
2023-01-03T09:11:53.978Z,10.16
2023-01-03T09:12:53.964Z,10.27
2023-01-03T09:13:53.960Z,10.17
2023-01-03T09:14:53.967Z,10.10
2023-01-03T09:15:53.988Z,10.14
2023-01-03T09:16:54.003Z,10.30
2023-01-03T09:17:53.932Z,10.27
2023-01-03T09:18:53.932Z,10.27
2023-01-03T09:19:53.926Z,10.17
2023-01-03T09:20:53.913Z,10.24
2023-01-03T09:21:53.904Z,10.21
2023-01-03T09:22:53.893Z,10.18
2023-01-03T09:23:53.884Z,10.43
2023-01-03T09:24:53.893Z,10.38
2023-01-03T09:25:53.884Z,10.39
2023-01-03T09:26:55.049Z,10.38
2023-01-03T09:27:53.860Z,10.39
2023-01-03T09:28:53.851Z,10.49
2023-01-03T09:29:53.848Z,10.43
2023-01-03T09:30:53.838Z,10.49
2023-01-03T09:31:53.899Z,10.55
2023-01-03T09:32:53.827Z,10.68
2023-01-03T09:33:53.822Z,10.61
2023-01-03T09:34:53.811Z,10.57
2023-01-03T09:35:53.821Z,10.68
2023-01-03T09:36:53.794Z,10.61
2023-01-03T09:37:53.788Z,10.61
2023-01-03T09:38:53.779Z,10.64
2023-01-03T09:39:53.777Z,10.76
2023-01-03T09:40:53.799Z,10.76
2023-01-03T09:41:53.758Z,10.90
2023-01-03T09:42:53.758Z,10.83
2023-01-03T09:43:53.760Z,10.82
2023-01-03T09:44:53.751Z,10.93
2023-01-03T09:45:53.736Z,10.86
2023-01-03T09:46:53.773Z,10.86
2023-01-03T09:47:53.725Z,10.79
2023-01-03T09:48:53.714Z,10.82
2023-01-03T09:50:26.700Z,10.79
2023-01-03T09:51:53.693Z,10.90
2023-01-03T09:52:53.693Z,10.95
2023-01-03T09:53:53.681Z,11.00
2023-01-03T09:54:53.668Z,11.00
2023-01-03T09:55:53.664Z,11.11
2023-01-03T09:56:53.659Z,11.18
2023-01-03T09:57:53.656Z,11.31
2023-01-03T09:58:53.650Z,11.36
2023-01-03T09:59:53.656Z,11.37
2023-01-03T10:00:53.653Z,11.38
2023-01-03T10:01:53.739Z,11.25
2023-01-03T10:02:53.781Z,11.23
2023-01-03T10:03:53.796Z,11.30
2023-01-03T10:04:53.619Z,11.20
2023-01-03T10:05:53.654Z,11.15
2023-01-03T10:06:53.603Z,11.09
2023-01-03T10:07:53.599Z,11.22
2023-01-03T10:08:53.587Z,11.27
2023-01-03T10:09:53.583Z,11.40
2023-01-03T10:10:53.589Z,11.67
2023-01-03T10:11:53.577Z,11.76
2023-01-03T10:12:53.578Z,11.93
2023-01-03T10:13:53.553Z,12.11
2023-01-03T10:14:53.546Z,12.07
2023-01-03T10:15:53.542Z,12.17
2023-01-03T10:16:53.583Z,12.46
2023-01-03T10:17:53.532Z,12.63
2023-01-03T10:18:53.525Z,12.79
2023-01-03T10:19:53.534Z,12.88
2023-01-03T10:20:53.516Z,13.06
2023-01-03T10:21:53.510Z,13.23
2023-01-03T10:22:53.504Z,13.49
2023-01-03T10:23:53.505Z,13.67
2023-01-03T10:24:53.492Z,13.45
2023-01-03T10:25:53.495Z,13.54
2023-01-03T10:26:53.487Z,13.58
2023-01-03T10:27:53.483Z,13.46
2023-01-03T10:28:53.472Z,13.35
2023-01-03T10:29:53.479Z,13.55
2023-01-03T10:30:59.483Z,13.63
2023-01-03T10:31:53.499Z,13.55
2023-01-03T10:32:53.474Z,13.67
2023-01-03T10:33:53.463Z,13.40
2023-01-03T10:34:53.451Z,13.64
2023-01-03T10:35:53.462Z,13.75
2023-01-03T10:36:53.448Z,14.03
2023-01-03T10:37:53.441Z,14.23
2023-01-03T10:38:53.668Z,14.34
2023-01-03T10:39:53.438Z,14.30
2023-01-03T10:40:53.429Z,14.22
2023-01-03T10:41:53.437Z,14.63
2023-01-03T10:42:53.423Z,14.63
2023-01-03T10:43:53.419Z,14.89
2023-01-03T10:44:53.409Z,15.15
2023-01-03T10:45:53.471Z,14.69
2023-01-03T10:46:53.597Z,14.66
2023-01-03T10:47:53.415Z,14.90
2023-01-03T10:49:25.867Z,14.56
2023-01-03T10:49:53.425Z,14.69
2023-01-03T10:50:53.415Z,14.51
2023-01-03T10:51:53.425Z,14.51
2023-01-03T10:52:53.408Z,14.73
2023-01-03T10:53:53.399Z,14.51
2023-01-03T10:54:53.424Z,14.30
2023-01-03T10:55:53.401Z,14.83
2023-01-03T10:56:53.397Z,15.22
2023-01-03T10:57:53.402Z,15.05
2023-01-03T10:58:53.391Z,14.96
2023-01-03T10:59:53.391Z,14.99
2023-01-03T11:00:53.411Z,15.12
2023-01-03T11:01:53.688Z,15.26
2023-01-03T11:02:53.474Z,15.63
2023-01-03T11:04:14.402Z,15.76
2023-01-03T11:04:53.370Z,15.45
2023-01-03T11:05:53.387Z,15.45
2023-01-03T11:06:53.373Z,15.72
2023-01-03T11:07:53.398Z,15.70
2023-01-03T11:08:53.364Z,15.99
2023-01-03T11:09:53.367Z,16.17
2023-01-03T11:10:53.362Z,16.57
2023-01-03T11:11:53.370Z,16.54
2023-01-03T11:12:53.365Z,16.34
2023-01-03T11:13:53.362Z,16.28
2023-01-03T11:14:53.359Z,16.00
2023-01-03T11:15:53.352Z,15.48
2023-01-03T11:16:53.473Z,14.93
2023-01-03T11:17:53.357Z,14.64
2023-01-03T11:18:53.354Z,14.53
2023-01-03T11:19:53.349Z,14.30
2023-01-03T11:20:53.346Z,14.09
2023-01-03T11:21:53.335Z,13.72
2023-01-03T11:22:53.340Z,13.63
2023-01-03T11:23:53.369Z,13.35
2023-01-03T11:24:53.340Z,13.23
2023-01-03T11:25:53.358Z,13.02
2023-01-03T11:26:53.326Z,12.95
2023-01-03T11:27:53.344Z,13.01
2023-01-03T11:28:53.343Z,13.06
2023-01-03T11:29:53.341Z,13.08
2023-01-03T11:30:53.315Z,13.16
2023-01-03T11:31:53.377Z,13.08
2023-01-03T11:32:53.318Z,13.06
2023-01-03T11:33:53.305Z,13.11
2023-01-03T11:35:22.319Z,13.06
2023-01-03T11:35:53.300Z,12.99
2023-01-03T11:36:53.294Z,12.98
2023-01-03T11:37:53.287Z,13.02
2023-01-03T11:38:53.286Z,12.96
2023-01-03T11:39:53.294Z,12.84
2023-01-03T11:40:53.292Z,12.80
2023-01-03T11:41:53.284Z,12.87
2023-01-03T11:42:53.264Z,12.87
2023-01-03T11:43:53.266Z,12.87
2023-01-03T11:44:53.261Z,12.76
2023-01-03T11:45:53.294Z,12.80
2023-01-03T11:46:53.305Z,12.66
2023-01-03T11:47:53.242Z,12.77
2023-01-03T11:48:53.287Z,12.54
2023-01-03T11:49:53.253Z,12.46
2023-01-03T11:50:53.239Z,12.47
2023-01-03T11:51:53.241Z,12.44
2023-01-03T11:52:53.226Z,12.43
2023-01-03T11:53:53.208Z,12.43
2023-01-03T11:54:53.774Z,12.38
2023-01-03T11:55:53.192Z,12.38
2023-01-03T11:56:53.188Z,12.43
2023-01-03T11:57:53.250Z,12.91
2023-01-03T11:58:53.177Z,13.35
2023-01-03T11:59:53.214Z,13.49
2023-01-03T12:00:53.181Z,13.75
2023-01-03T12:01:53.230Z,14.30
2023-01-03T12:02:53.208Z,14.45
2023-01-03T12:03:53.260Z,14.95
2023-01-03T12:04:53.146Z,15.50
2023-01-03T12:05:53.145Z,16.08
2023-01-03T12:07:03.525Z,16.13
2023-01-03T12:07:53.140Z,15.83
2023-01-03T12:08:53.134Z,16.10
2023-01-03T12:09:53.144Z,16.42
2023-01-03T12:10:53.128Z,16.59
2023-01-03T12:11:53.119Z,16.77
2023-01-03T12:12:53.111Z,17.01
2023-01-03T12:13:53.178Z,17.14
2023-01-03T12:14:53.121Z,17.30
2023-01-03T12:16:14.159Z,17.65
2023-01-03T12:16:53.119Z,17.52
2023-01-03T12:18:14.099Z,17.91
2023-01-03T12:18:53.099Z,18.03
2023-01-03T12:19:53.083Z,18.05
2023-01-03T12:20:53.083Z,18.01
2023-01-03T12:21:53.081Z,17.86
2023-01-03T12:22:53.077Z,17.68
2023-01-03T12:23:53.084Z,17.68
2023-01-03T12:24:53.074Z,17.90
2023-01-03T12:25:53.066Z,18.09
2023-01-03T12:26:53.070Z,17.97
2023-01-03T12:27:53.070Z,18.24
2023-01-03T12:28:53.059Z,18.56
2023-01-03T12:29:53.076Z,18.11
2023-01-03T12:30:53.129Z,18.31
2023-01-03T12:31:53.089Z,18.13
2023-01-03T12:32:53.058Z,18.54
2023-01-03T12:33:53.053Z,18.42
2023-01-03T12:34:53.059Z,18.11
2023-01-03T12:35:53.054Z,17.99
2023-01-03T12:36:53.048Z,17.91
2023-01-03T12:37:53.084Z,18.05
2023-01-03T12:38:53.033Z,18.13
2023-01-03T12:39:53.039Z,18.70
2023-01-03T12:40:53.089Z,18.91
2023-01-03T12:41:53.051Z,18.27
2023-01-03T12:43:15.108Z,17.87
2023-01-03T12:43:53.014Z,17.16
2023-01-03T12:44:53.021Z,16.74
2023-01-03T12:45:53.028Z,16.09
2023-01-03T12:46:53.126Z,15.95
2023-01-03T12:47:53.025Z,15.80
2023-01-03T12:48:53.031Z,15.85
2023-01-03T12:49:53.005Z,15.60
2023-01-03T12:50:53.078Z,15.08
2023-01-03T12:51:53.000Z,14.85
2023-01-03T12:52:53.021Z,14.56
2023-01-03T12:53:53.015Z,14.55
2023-01-03T12:54:54.770Z,14.45
2023-01-03T12:55:53.005Z,14.49
2023-01-03T12:56:52.994Z,14.53
2023-01-03T12:57:52.999Z,14.58
2023-01-03T12:58:52.985Z,14.52
2023-01-03T12:59:52.994Z,14.63
2023-01-03T13:00:52.981Z,14.64
2023-01-03T13:01:53.100Z,14.53
2023-01-03T13:02:53.228Z,14.46
2023-01-03T13:03:53.039Z,14.44
2023-01-03T13:04:52.970Z,14.41
2023-01-03T13:05:52.984Z,14.22
2023-01-03T13:06:52.960Z,14.28
2023-01-03T13:07:52.952Z,14.16
2023-01-03T13:08:52.948Z,14.22
2023-01-03T13:09:58.858Z,14.23
2023-01-03T13:10:52.962Z,14.09
2023-01-03T13:11:52.955Z,13.98
2023-01-03T13:12:52.944Z,13.91
2023-01-03T13:13:52.927Z,13.96
2023-01-03T13:14:52.932Z,13.91
2023-01-03T13:15:52.963Z,13.97
2023-01-03T13:16:52.920Z,13.91
2023-01-03T13:17:52.916Z,13.94
2023-01-03T13:18:52.903Z,13.94
2023-01-03T13:19:52.921Z,13.94
2023-01-03T13:20:52.907Z,13.91
2023-01-03T13:21:52.894Z,14.04
2023-01-03T13:22:52.893Z,14.09
2023-01-03T13:23:52.883Z,14.11
2023-01-03T13:24:52.877Z,14.03
2023-01-03T13:25:52.872Z,14.00